Skip Navigation Links Skip Navigation Links

Current Weather

Burlington Muni, Burlington, Wis.

For information only: do not use for flight planning or navigation.
Latest weather
Observation time Monday, June 21, 2021 7:55 PM CDT
Local time Monday, June 21, 2021 8:08 PM CDT
Flight conditions Visual Meteorological Conditions
Winds
Wind direction North-Northwest (330°)
Wind speed 8 mph
Visibility 10 mi.
Sky condition
Ceiling unlimited
Temperature 61°F
Dewpoint 39°F
Altimeter 29.90 in.Hg
Derived measurements
Relative humidity 45%
Density altitude 1042 ft.
Remarks
Fully automated report.
Automated weather observing station with precipitation discriminator.
Present weather sensor not operating.
METAR KBUU 220055Z AUTO 33007KT 10SM 16/04 A2990 RMK AO2 T01600040 PWINO

Settings

Location code

InnerDrive.Weather 4.0.6770.0 Release CLR 4.0.30319.42000
Copyright ©2018 Inner Drive Technology. All rights reserved. Portions Copyright ©1986-2018 David Braverman.

Find weather

Site navigation


Skip Navigation Links

Place info

Page info

PayPal - The safer, easier way to pay online!

Return home.

Copyright ©2021 Inner Drive Technology. Purveyors of fine, hand-crafted computer software. Page printed 2021-06-22T01:08:39 UTC.